sensor_id;sensor_type;location;lat;lon;timestamp;P1;durP1;ratioP1;P2;durP2;ratioP2
66946;SDS011;53853;51.982;5.928;2023-07-29T00:01:16;5.57;;;4.55;;
66946;SDS011;53853;51.982;5.928;2023-07-29T00:03:46;5.55;;;4.57;;
66946;SDS011;53853;51.982;5.928;2023-07-29T00:06:16;5.53;;;4.75;;
66946;SDS011;53853;51.982;5.928;2023-07-29T00:08:45;6.20;;;4.28;;
66946;SDS011;53853;51.982;5.928;2023-07-29T00:11:18;4.93;;;3.83;;
66946;SDS011;53853;51.982;5.928;2023-07-29T00:13:48;6.95;;;4.97;;
66946;SDS011;53853;51.982;5.928;2023-07-29T00:16:18;5.05;;;4.15;;
66946;SDS011;53853;51.982;5.928;2023-07-29T00:18:48;4.20;;;3.45;;
66946;SDS011;53853;51.982;5.928;2023-07-29T00:21:18;4.85;;;3.85;;
66946;SDS011;53853;51.982;5.928;2023-07-29T00:23:48;3.92;;;3.38;;
66946;SDS011;53853;51.982;5.928;2023-07-29T00:26:20;4.93;;;3.88;;
66946;SDS011;53853;51.982;5.928;2023-07-29T00:28:51;5.35;;;4.85;;
66946;SDS011;53853;51.982;5.928;2023-07-29T00:31:21;5.05;;;4.32;;
66946;SDS011;53853;51.982;5.928;2023-07-29T00:33:51;5.93;;;4.60;;
66946;SDS011;53853;51.982;5.928;2023-07-29T00:36:21;4.20;;;3.38;;
66946;SDS011;53853;51.982;5.928;2023-07-29T00:38:51;5.05;;;3.80;;
66946;SDS011;53853;51.982;5.928;2023-07-29T00:41:25;6.22;;;5.00;;
66946;SDS011;53853;51.982;5.928;2023-07-29T00:43:55;6.35;;;4.97;;
66946;SDS011;53853;51.982;5.928;2023-07-29T00:46:25;5.97;;;4.88;;
66946;SDS011;53853;51.982;5.928;2023-07-29T00:48:57;6.00;;;5.38;;
66946;SDS011;53853;51.982;5.928;2023-07-29T00:51:27;6.60;;;4.80;;
66946;SDS011;53853;51.982;5.928;2023-07-29T00:53:57;5.82;;;5.05;;
66946;SDS011;53853;51.982;5.928;2023-07-29T00:56:30;8.60;;;5.63;;
66946;SDS011;53853;51.982;5.928;2023-07-29T00:59:00;6.65;;;4.95;;
66946;SDS011;53853;51.982;5.928;2023-07-29T01:01:30;5.85;;;4.78;;
66946;SDS011;53853;51.982;5.928;2023-07-29T01:04:01;6.82;;;5.00;;
66946;SDS011;53853;51.982;5.928;2023-07-29T01:06:34;6.07;;;5.45;;
66946;SDS011;53853;51.982;5.928;2023-07-29T01:09:11;6.22;;;5.25;;
66946;SDS011;53853;51.982;5.928;2023-07-29T01:11:54;6.95;;;5.13;;
66946;SDS011;53853;51.982;5.928;2023-07-29T01:14:31;5.28;;;4.38;;
66946;SDS011;53853;51.982;5.928;2023-07-29T01:17:08;5.00;;;4.25;;
66946;SDS011;53853;51.982;5.928;2023-07-29T01:19:43;6.30;;;4.50;;
66946;SDS011;53853;51.982;5.928;2023-07-29T01:22:24;6.32;;;5.07;;
66946;SDS011;53853;51.982;5.928;2023-07-29T01:24:58;5.63;;;4.43;;
66946;SDS011;53853;51.982;5.928;2023-07-29T01:27:27;7.85;;;5.88;;
66946;SDS011;53853;51.982;5.928;2023-07-29T01:29:58;6.93;;;5.45;;
66946;SDS011;53853;51.982;5.928;2023-07-29T01:32:32;6.55;;;4.72;;
66946;SDS011;53853;51.982;5.928;2023-07-29T01:35:11;5.18;;;4.28;;
66946;SDS011;53853;51.982;5.928;2023-07-29T01:37:47;4.57;;;4.03;;
66946;SDS011;53853;51.982;5.928;2023-07-29T01:40:22;4.18;;;3.38;;
66946;SDS011;53853;51.982;5.928;2023-07-29T01:42:54;4.97;;;3.78;;
66946;SDS011;53853;51.982;5.928;2023-07-29T01:45:24;4.32;;;3.85;;
66946;SDS011;53853;51.982;5.928;2023-07-29T01:47:57;4.13;;;3.45;;
66946;SDS011;53853;51.982;5.928;2023-07-29T01:50:27;4.47;;;3.75;;
66946;SDS011;53853;51.982;5.928;2023-07-29T01:52:57;5.55;;;4.85;;
66946;SDS011;53853;51.982;5.928;2023-07-29T01:55:30;5.05;;;4.53;;
66946;SDS011;53853;51.982;5.928;2023-07-29T01:58:00;4.97;;;4.03;;
66946;SDS011;53853;51.982;5.928;2023-07-29T02:00:33;5.07;;;3.72;;
66946;SDS011;53853;51.982;5.928;2023-07-29T02:03:03;3.70;;;3.22;;
66946;SDS011;53853;51.982;5.928;2023-07-29T02:05:33;6.03;;;4.40;;
66946;SDS011;53853;51.982;5.928;2023-07-29T02:08:03;5.72;;;3.45;;
66946;SDS011;53853;51.982;5.928;2023-07-29T02:10:35;5.47;;;4.80;;
66946;SDS011;53853;51.982;5.928;2023-07-29T02:13:05;7.50;;;5.53;;
66946;SDS011;53853;51.982;5.928;2023-07-29T02:15:35;4.60;;;3.80;;
66946;SDS011;53853;51.982;5.928;2023-07-29T02:18:05;6.00;;;4.35;;
66946;SDS011;53853;51.982;5.928;2023-07-29T02:20:35;5.95;;;4.88;;
66946;SDS011;53853;51.982;5.928;2023-07-29T02:23:05;4.82;;;4.32;;
66946;SDS011;53853;51.982;5.928;2023-07-29T02:25:38;3.70;;;3.20;;
66946;SDS011;53853;51.982;5.928;2023-07-29T02:28:08;5.13;;;3.78;;
66946;SDS011;53853;51.982;5.928;2023-07-29T02:30:41;4.45;;;3.97;;
66946;SDS011;53853;51.982;5.928;2023-07-29T02:33:13;5.70;;;4.00;;
66946;SDS011;53853;51.982;5.928;2023-07-29T02:35:43;4.32;;;3.67;;
66946;SDS011;53853;51.982;5.928;2023-07-29T02:38:13;5.20;;;4.15;;
66946;SDS011;53853;51.982;5.928;2023-07-29T02:40:45;6.03;;;4.38;;
66946;SDS011;53853;51.982;5.928;2023-07-29T02:43:15;6.68;;;5.00;;
66946;SDS011;53853;51.982;5.928;2023-07-29T02:45:45;7.25;;;5.60;;
66946;SDS011;53853;51.982;5.928;2023-07-29T02:48:15;5.90;;;5.30;;
66946;SDS011;53853;51.982;5.928;2023-07-29T02:53:21;6.13;;;5.07;;
66946;SDS011;53853;51.982;5.928;2023-07-29T02:55:54;6.82;;;5.65;;
66946;SDS011;53853;51.982;5.928;2023-07-29T02:58:24;5.85;;;4.63;;
66946;SDS011;53853;51.982;5.928;2023-07-29T03:01:00;4.95;;;3.72;;
66946;SDS011;53853;51.982;5.928;2023-07-29T03:03:30;7.97;;;6.70;;
66946;SDS011;53853;51.982;5.928;2023-07-29T03:06:01;6.80;;;5.32;;
66946;SDS011;53853;51.982;5.928;2023-07-29T03:08:32;7.55;;;6.07;;
66946;SDS011;53853;51.982;5.928;2023-07-29T03:11:07;6.85;;;5.75;;
66946;SDS011;53853;51.982;5.928;2023-07-29T03:13:39;7.68;;;6.45;;
66946;SDS011;53853;51.982;5.928;2023-07-29T03:16:09;7.55;;;5.38;;
66946;SDS011;53853;51.982;5.928;2023-07-29T03:18:42;5.35;;;4.05;;
66946;SDS011;53853;51.982;5.928;2023-07-29T03:21:13;8.18;;;6.60;;
66946;SDS011;53853;51.982;5.928;2023-07-29T03:23:43;9.52;;;6.43;;
66946;SDS011;53853;51.982;5.928;2023-07-29T03:26:15;6.90;;;5.15;;
66946;SDS011;53853;51.982;5.928;2023-07-29T03:28:45;8.27;;;6.78;;
66946;SDS011;53853;51.982;5.928;2023-07-29T03:31:16;9.02;;;6.10;;
66946;SDS011;53853;51.982;5.928;2023-07-29T03:33:46;5.18;;;4.60;;
66946;SDS011;53853;51.982;5.928;2023-07-29T03:36:16;4.45;;;3.80;;
66946;SDS011;53853;51.982;5.928;2023-07-29T03:38:46;7.50;;;5.78;;
66946;SDS011;53853;51.982;5.928;2023-07-29T03:41:18;6.80;;;5.43;;
66946;SDS011;53853;51.982;5.928;2023-07-29T03:43:48;7.93;;;4.97;;
66946;SDS011;53853;51.982;5.928;2023-07-29T03:46:18;7.25;;;5.40;;
66946;SDS011;53853;51.982;5.928;2023-07-29T03:48:48;4.47;;;3.67;;
66946;SDS011;53853;51.982;5.928;2023-07-29T03:51:18;4.20;;;2.95;;
66946;SDS011;53853;51.982;5.928;2023-07-29T03:53:49;3.55;;;2.47;;
66946;SDS011;53853;51.982;5.928;2023-07-29T03:56:22;3.08;;;2.30;;
66946;SDS011;53853;51.982;5.928;2023-07-29T03:58:52;4.15;;;3.17;;
66946;SDS011;53853;51.982;5.928;2023-07-29T04:01:30;5.43;;;4.03;;
66946;SDS011;53853;51.982;5.928;2023-07-29T04:04:00;4.75;;;3.28;;
66946;SDS011;53853;51.982;5.928;2023-07-29T04:06:30;4.13;;;3.30;;
66946;SDS011;53853;51.982;5.928;2023-07-29T04:09:00;4.43;;;3.85;;
66946;SDS011;53853;51.982;5.928;2023-07-29T04:11:34;4.68;;;2.88;;
66946;SDS011;53853;51.982;5.928;2023-07-29T04:14:03;3.13;;;2.30;;
66946;SDS011;53853;51.982;5.928;2023-07-29T04:16:33;4.32;;;2.78;;
66946;SDS011;53853;51.982;5.928;2023-07-29T04:19:03;3.70;;;2.63;;
66946;SDS011;53853;51.982;5.928;2023-07-29T04:21:33;4.40;;;3.28;;
66946;SDS011;53853;51.982;5.928;2023-07-29T04:24:03;4.88;;;3.17;;
66946;SDS011;53853;51.982;5.928;2023-07-29T04:26:36;4.38;;;3.50;;
66946;SDS011;53853;51.982;5.928;2023-07-29T04:29:06;4.88;;;3.47;;
66946;SDS011;53853;51.982;5.928;2023-07-29T04:31:33;5.00;;;3.63;;
66946;SDS011;53853;51.982;5.928;2023-07-29T04:34:04;3.65;;;2.50;;
66946;SDS011;53853;51.982;5.928;2023-07-29T04:36:34;4.75;;;2.50;;
66946;SDS011;53853;51.982;5.928;2023-07-29T04:39:04;4.53;;;3.03;;
66946;SDS011;53853;51.982;5.928;2023-07-29T04:41:37;3.00;;;2.00;;
66946;SDS011;53853;51.982;5.928;2023-07-29T04:44:07;2.85;;;2.13;;
66946;SDS011;53853;51.982;5.928;2023-07-29T04:46:37;2.95;;;1.90;;
66946;SDS011;53853;51.982;5.928;2023-07-29T04:49:07;2.83;;;1.95;;
66946;SDS011;53853;51.982;5.928;2023-07-29T04:51:37;5.13;;;2.70;;
66946;SDS011;53853;51.982;5.928;2023-07-29T04:54:07;5.35;;;3.50;;
66946;SDS011;53853;51.982;5.928;2023-07-29T04:56:39;5.80;;;3.00;;
66946;SDS011;53853;51.982;5.928;2023-07-29T04:59:09;3.38;;;2.50;;
66946;SDS011;53853;51.982;5.928;2023-07-29T05:01:39;5.80;;;3.33;;
66946;SDS011;53853;51.982;5.928;2023-07-29T05:04:09;5.07;;;2.83;;
66946;SDS011;53853;51.982;5.928;2023-07-29T05:06:40;4.35;;;2.55;;
66946;SDS011;53853;51.982;5.928;2023-07-29T05:09:13;3.65;;;2.13;;
66946;SDS011;53853;51.982;5.928;2023-07-29T05:11:46;4.15;;;2.63;;
66946;SDS011;53853;51.982;5.928;2023-07-29T05:14:17;5.63;;;2.70;;
66946;SDS011;53853;51.982;5.928;2023-07-29T05:16:48;3.00;;;2.22;;
66946;SDS011;53853;51.982;5.928;2023-07-29T05:19:19;4.18;;;2.63;;
66946;SDS011;53853;51.982;5.928;2023-07-29T05:21:48;4.00;;;2.50;;
66946;SDS011;53853;51.982;5.928;2023-07-29T05:24:18;4.10;;;2.92;;
66946;SDS011;53853;51.982;5.928;2023-07-29T05:26:51;7.30;;;2.83;;
66946;SDS011;53853;51.982;5.928;2023-07-29T05:29:21;4.63;;;2.85;;
66946;SDS011;53853;51.982;5.928;2023-07-29T05:31:51;3.28;;;2.38;;
66946;SDS011;53853;51.982;5.928;2023-07-29T05:34:22;3.88;;;2.33;;
66946;SDS011;53853;51.982;5.928;2023-07-29T05:36:53;4.32;;;2.60;;
66946;SDS011;53853;51.982;5.928;2023-07-29T05:39:23;4.10;;;2.75;;
66946;SDS011;53853;51.982;5.928;2023-07-29T05:41:55;3.80;;;2.95;;
66946;SDS011;53853;51.982;5.928;2023-07-29T05:44:28;4.00;;;2.92;;
66946;SDS011;53853;51.982;5.928;2023-07-29T05:47:00;3.47;;;2.63;;
66946;SDS011;53853;51.982;5.928;2023-07-29T05:49:29;5.00;;;2.85;;
66946;SDS011;53853;51.982;5.928;2023-07-29T05:51:59;4.20;;;2.90;;
66946;SDS011;53853;51.982;5.928;2023-07-29T05:54:30;4.10;;;3.38;;
66946;SDS011;53853;51.982;5.928;2023-07-29T05:57:02;6.95;;;3.63;;
66946;SDS011;53853;51.982;5.928;2023-07-29T05:59:33;7.00;;;3.58;;
66946;SDS011;53853;51.982;5.928;2023-07-29T06:02:03;4.18;;;3.38;;
66946;SDS011;53853;51.982;5.928;2023-07-29T06:04:33;4.50;;;2.90;;
66946;SDS011;53853;51.982;5.928;2023-07-29T06:07:03;5.90;;;3.72;;
66946;SDS011;53853;51.982;5.928;2023-07-29T06:09:34;5.32;;;3.30;;
66946;SDS011;53853;51.982;5.928;2023-07-29T06:12:08;4.53;;;3.00;;
66946;SDS011;53853;51.982;5.928;2023-07-29T06:14:38;7.63;;;4.45;;
66946;SDS011;53853;51.982;5.928;2023-07-29T06:17:08;5.18;;;3.47;;
66946;SDS011;53853;51.982;5.928;2023-07-29T06:19:38;5.35;;;3.85;;
66946;SDS011;53853;51.982;5.928;2023-07-29T06:22:09;4.95;;;3.75;;
66946;SDS011;53853;51.982;5.928;2023-07-29T06:24:39;5.57;;;3.95;;
66946;SDS011;53853;51.982;5.928;2023-07-29T06:27:11;5.90;;;3.83;;
66946;SDS011;53853;51.982;5.928;2023-07-29T06:29:41;6.75;;;4.25;;
66946;SDS011;53853;51.982;5.928;2023-07-29T06:32:11;8.32;;;5.20;;
66946;SDS011;53853;51.982;5.928;2023-07-29T06:34:41;5.78;;;3.97;;
66946;SDS011;53853;51.982;5.928;2023-07-29T06:37:11;5.40;;;3.55;;
66946;SDS011;53853;51.982;5.928;2023-07-29T06:39:41;7.13;;;5.00;;
66946;SDS011;53853;51.982;5.928;2023-07-29T06:42:13;6.78;;;4.38;;
66946;SDS011;53853;51.982;5.928;2023-07-29T06:44:43;5.32;;;4.22;;
66946;SDS011;53853;51.982;5.928;2023-07-29T06:47:13;5.15;;;3.88;;
66946;SDS011;53853;51.982;5.928;2023-07-29T06:49:43;6.38;;;4.38;;
66946;SDS011;53853;51.982;5.928;2023-07-29T06:52:14;6.43;;;4.38;;
66946;SDS011;53853;51.982;5.928;2023-07-29T06:54:44;6.68;;;4.68;;
66946;SDS011;53853;51.982;5.928;2023-07-29T06:57:16;6.38;;;4.18;;
66946;SDS011;53853;51.982;5.928;2023-07-29T06:59:46;4.38;;;3.20;;
66946;SDS011;53853;51.982;5.928;2023-07-29T07:02:16;5.07;;;3.92;;
66946;SDS011;53853;51.982;5.928;2023-07-29T07:04:46;5.32;;;4.53;;
66946;SDS011;53853;51.982;5.928;2023-07-29T07:07:16;5.10;;;3.58;;
66946;SDS011;53853;51.982;5.928;2023-07-29T07:09:46;7.15;;;4.85;;
66946;SDS011;53853;51.982;5.928;2023-07-29T07:12:18;5.43;;;4.18;;
66946;SDS011;53853;51.982;5.928;2023-07-29T07:14:48;5.85;;;4.75;;
66946;SDS011;53853;51.982;5.928;2023-07-29T07:17:18;7.65;;;4.45;;
66946;SDS011;53853;51.982;5.928;2023-07-29T07:19:48;7.43;;;4.68;;
66946;SDS011;53853;51.982;5.928;2023-07-29T07:22:18;6.65;;;5.13;;
66946;SDS011;53853;51.982;5.928;2023-07-29T07:24:48;5.82;;;4.32;;
66946;SDS011;53853;51.982;5.928;2023-07-29T07:27:20;7.47;;;4.40;;
66946;SDS011;53853;51.982;5.928;2023-07-29T07:29:50;6.15;;;5.30;;
66946;SDS011;53853;51.982;5.928;2023-07-29T07:32:20;7.03;;;5.53;;
66946;SDS011;53853;51.982;5.928;2023-07-29T07:34:50;7.80;;;5.13;;
66946;SDS011;53853;51.982;5.928;2023-07-29T07:37:20;6.32;;;5.65;;
66946;SDS011;53853;51.982;5.928;2023-07-29T07:39:50;5.95;;;4.30;;
66946;SDS011;53853;51.982;5.928;2023-07-29T07:42:22;9.45;;;5.05;;
66946;SDS011;53853;51.982;5.928;2023-07-29T07:44:52;6.30;;;4.82;;
66946;SDS011;53853;51.982;5.928;2023-07-29T07:47:22;6.63;;;5.40;;
66946;SDS011;53853;51.982;5.928;2023-07-29T07:49:52;6.25;;;5.00;;
66946;SDS011;53853;51.982;5.928;2023-07-29T07:52:22;7.18;;;5.47;;
66946;SDS011;53853;51.982;5.928;2023-07-29T07:54:52;6.45;;;5.32;;
66946;SDS011;53853;51.982;5.928;2023-07-29T07:57:25;6.25;;;5.65;;
66946;SDS011;53853;51.982;5.928;2023-07-29T07:59:55;5.85;;;5.18;;
66946;SDS011;53853;51.982;5.928;2023-07-29T08:02:25;6.10;;;4.03;;
66946;SDS011;53853;51.982;5.928;2023-07-29T08:04:55;3.88;;;3.20;;
66946;SDS011;53853;51.982;5.928;2023-07-29T08:07:25;4.50;;;3.97;;
66946;SDS011;53853;51.982;5.928;2023-07-29T08:09:55;4.97;;;3.45;;
66946;SDS011;53853;51.982;5.928;2023-07-29T08:12:27;4.55;;;3.75;;
66946;SDS011;53853;51.982;5.928;2023-07-29T08:15:01;6.50;;;4.07;;
66946;SDS011;53853;51.982;5.928;2023-07-29T08:17:32;6.13;;;3.92;;
66946;SDS011;53853;51.982;5.928;2023-07-29T08:20:02;6.05;;;3.75;;
66946;SDS011;53853;51.982;5.928;2023-07-29T08:22:32;3.97;;;3.47;;
66946;SDS011;53853;51.982;5.928;2023-07-29T08:25:02;3.85;;;3.05;;
66946;SDS011;53853;51.982;5.928;2023-07-29T08:27:35;5.95;;;4.00;;
66946;SDS011;53853;51.982;5.928;2023-07-29T08:30:06;4.78;;;3.50;;
66946;SDS011;53853;51.982;5.928;2023-07-29T08:32:37;5.70;;;4.38;;
66946;SDS011;53853;51.982;5.928;2023-07-29T08:35:07;4.40;;;2.60;;
66946;SDS011;53853;51.982;5.928;2023-07-29T08:37:37;4.95;;;3.55;;
66946;SDS011;53853;51.982;5.928;2023-07-29T08:40:07;4.35;;;2.95;;
66946;SDS011;53853;51.982;5.928;2023-07-29T08:42:40;4.25;;;2.65;;
66946;SDS011;53853;51.982;5.928;2023-07-29T08:45:13;4.88;;;3.00;;
66946;SDS011;53853;51.982;5.928;2023-07-29T08:47:45;3.00;;;2.22;;
66946;SDS011;53853;51.982;5.928;2023-07-29T08:50:17;2.47;;;1.60;;
66946;SDS011;53853;51.982;5.928;2023-07-29T08:52:48;4.03;;;2.97;;
66946;SDS011;53853;51.982;5.928;2023-07-29T08:55:20;5.40;;;3.08;;
66946;SDS011;53853;51.982;5.928;2023-07-29T08:57:53;4.28;;;2.15;;
66946;SDS011;53853;51.982;5.928;2023-07-29T09:00:23;4.32;;;2.67;;
66946;SDS011;53853;51.982;5.928;2023-07-29T09:02:55;4.03;;;2.63;;
66946;SDS011;53853;51.982;5.928;2023-07-29T09:05:30;2.83;;;1.83;;
66946;SDS011;53853;51.982;5.928;2023-07-29T09:08:02;3.63;;;2.50;;
66946;SDS011;53853;51.982;5.928;2023-07-29T09:10:34;3.85;;;2.28;;
66946;SDS011;53853;51.982;5.928;2023-07-29T09:13:07;3.42;;;2.08;;
66946;SDS011;53853;51.982;5.928;2023-07-29T09:15:37;4.53;;;2.38;;
66946;SDS011;53853;51.982;5.928;2023-07-29T09:18:08;3.78;;;2.30;;
66946;SDS011;53853;51.982;5.928;2023-07-29T09:20:39;3.88;;;2.17;;
66946;SDS011;53853;51.982;5.928;2023-07-29T09:23:09;3.58;;;2.00;;
66946;SDS011;53853;51.982;5.928;2023-07-29T09:25:39;3.33;;;2.08;;
66946;SDS011;53853;51.982;5.928;2023-07-29T09:28:12;4.97;;;2.38;;
66946;SDS011;53853;51.982;5.928;2023-07-29T09:30:45;3.88;;;2.42;;
66946;SDS011;53853;51.982;5.928;2023-07-29T09:33:17;3.35;;;2.00;;
66946;SDS011;53853;51.982;5.928;2023-07-29T09:35:47;4.65;;;2.55;;
66946;SDS011;53853;51.982;5.928;2023-07-29T09:38:17;3.08;;;2.30;;
66946;SDS011;53853;51.982;5.928;2023-07-29T09:40:54;5.60;;;2.67;;
66946;SDS011;53853;51.982;5.928;2023-07-29T09:43:28;3.42;;;2.00;;
66946;SDS011;53853;51.982;5.928;2023-07-29T09:45:59;4.65;;;1.90;;
66946;SDS011;53853;51.982;5.928;2023-07-29T09:48:32;4.55;;;2.00;;
66946;SDS011;53853;51.982;5.928;2023-07-29T09:51:09;2.93;;;1.30;;
66946;SDS011;53853;51.982;5.928;2023-07-29T09:53:40;5.90;;;2.03;;
66946;SDS011;53853;51.982;5.928;2023-07-29T09:56:11;3.15;;;2.05;;
66946;SDS011;53853;51.982;5.928;2023-07-29T09:58:45;3.90;;;1.75;;
66946;SDS011;53853;51.982;5.928;2023-07-29T10:01:16;3.78;;;2.30;;
66946;SDS011;53853;51.982;5.928;2023-07-29T10:03:47;2.42;;;1.60;;
66946;SDS011;53853;51.982;5.928;2023-07-29T10:06:18;3.55;;;2.10;;
66946;SDS011;53853;51.982;5.928;2023-07-29T10:08:48;2.88;;;1.95;;
66946;SDS011;53853;51.982;5.928;2023-07-29T10:11:19;3.20;;;2.00;;
66946;SDS011;53853;51.982;5.928;2023-07-29T10:13:53;3.70;;;1.67;;
66946;SDS011;53853;51.982;5.928;2023-07-29T10:16:24;3.83;;;2.50;;
66946;SDS011;53853;51.982;5.928;2023-07-29T10:18:54;3.58;;;2.15;;
66946;SDS011;53853;51.982;5.928;2023-07-29T10:21:25;4.32;;;1.63;;
66946;SDS011;53853;51.982;5.928;2023-07-29T10:23:56;2.47;;;1.50;;
66946;SDS011;53853;51.982;5.928;2023-07-29T10:26:29;3.13;;;1.77;;
66946;SDS011;53853;51.982;5.928;2023-07-29T10:29:05;3.10;;;1.63;;
66946;SDS011;53853;51.982;5.928;2023-07-29T10:31:40;3.55;;;1.95;;
66946;SDS011;53853;51.982;5.928;2023-07-29T10:34:13;3.97;;;2.05;;
66946;SDS011;53853;51.982;5.928;2023-07-29T10:36:44;3.60;;;1.80;;
66946;SDS011;53853;51.982;5.928;2023-07-29T10:39:16;4.00;;;1.73;;
66946;SDS011;53853;51.982;5.928;2023-07-29T10:44:53;4.63;;;2.15;;
66946;SDS011;53853;51.982;5.928;2023-07-29T10:47:23;2.60;;;1.85;;
66946;SDS011;53853;51.982;5.928;2023-07-29T10:49:55;3.00;;;1.98;;
66946;SDS011;53853;51.982;5.928;2023-07-29T10:52:39;3.05;;;2.47;;
66946;SDS011;53853;51.982;5.928;2023-07-29T11:00:47;3.22;;;1.88;;
66946;SDS011;53853;51.982;5.928;2023-07-29T11:03:18;3.47;;;2.58;;
66946;SDS011;53853;51.982;5.928;2023-07-29T11:05:50;3.17;;;2.08;;
66946;SDS011;53853;51.982;5.928;2023-07-29T11:08:22;4.18;;;1.90;;
66946;SDS011;53853;51.982;5.928;2023-07-29T11:10:59;3.67;;;2.22;;
66946;SDS011;53853;51.982;5.928;2023-07-29T11:13:34;3.63;;;1.67;;
66946;SDS011;53853;51.982;5.928;2023-07-29T11:16:09;5.60;;;2.17;;
66946;SDS011;53853;51.982;5.928;2023-07-29T11:18:44;4.53;;;1.33;;
66946;SDS011;53853;51.982;5.928;2023-07-29T11:21:16;3.33;;;2.20;;
66946;SDS011;53853;51.982;5.928;2023-07-29T11:23:47;4.00;;;1.55;;
66946;SDS011;53853;51.982;5.928;2023-07-29T11:26:17;2.67;;;1.50;;
66946;SDS011;53853;51.982;5.928;2023-07-29T11:28:47;2.78;;;1.83;;
66946;SDS011;53853;51.982;5.928;2023-07-29T11:31:20;2.63;;;1.50;;
66946;SDS011;53853;51.982;5.928;2023-07-29T11:33:50;5.75;;;1.90;;
66946;SDS011;53853;51.982;5.928;2023-07-29T11:36:20;2.92;;;1.45;;
66946;SDS011;53853;51.982;5.928;2023-07-29T11:38:50;2.60;;;1.60;;
66946;SDS011;53853;51.982;5.928;2023-07-29T11:41:20;1.92;;;1.25;;
66946;SDS011;53853;51.982;5.928;2023-07-29T11:43:50;1.75;;;1.10;;
66946;SDS011;53853;51.982;5.928;2023-07-29T11:46:24;3.58;;;1.80;;
66946;SDS011;53853;51.982;5.928;2023-07-29T11:48:54;2.47;;;1.30;;
66946;SDS011;53853;51.982;5.928;2023-07-29T11:51:25;2.20;;;1.27;;
66946;SDS011;53853;51.982;5.928;2023-07-29T11:54:01;2.78;;;1.83;;
66946;SDS011;53853;51.982;5.928;2023-07-29T11:56:31;2.53;;;1.48;;
66946;SDS011;53853;51.982;5.928;2023-07-29T11:59:02;2.63;;;1.88;;
66946;SDS011;53853;51.982;5.928;2023-07-29T12:01:35;3.53;;;1.85;;
66946;SDS011;53853;51.982;5.928;2023-07-29T12:04:06;3.92;;;1.60;;
66946;SDS011;53853;51.982;5.928;2023-07-29T12:06:36;2.58;;;1.80;;
66946;SDS011;53853;51.982;5.928;2023-07-29T12:09:07;2.90;;;1.60;;
66946;SDS011;53853;51.982;5.928;2023-07-29T12:11:39;2.95;;;1.63;;
66946;SDS011;53853;51.982;5.928;2023-07-29T12:14:10;1.90;;;1.17;;
66946;SDS011;53853;51.982;5.928;2023-07-29T12:16:43;3.00;;;1.60;;
66946;SDS011;53853;51.982;5.928;2023-07-29T12:19:13;3.40;;;1.42;;
66946;SDS011;53853;51.982;5.928;2023-07-29T12:21:44;4.68;;;1.70;;
66946;SDS011;53853;51.982;5.928;2023-07-29T12:24:14;2.60;;;1.60;;
66946;SDS011;53853;51.982;5.928;2023-07-29T12:26:44;2.25;;;1.30;;
66946;SDS011;53853;51.982;5.928;2023-07-29T12:29:16;3.42;;;1.40;;
66946;SDS011;53853;51.982;5.928;2023-07-29T12:31:56;2.78;;;1.30;;
66946;SDS011;53853;51.982;5.928;2023-07-29T12:34:28;3.35;;;1.52;;
66946;SDS011;53853;51.982;5.928;2023-07-29T12:36:59;3.60;;;1.48;;
66946;SDS011;53853;51.982;5.928;2023-07-29T12:39:32;2.97;;;1.58;;
66946;SDS011;53853;51.982;5.928;2023-07-29T12:42:03;3.17;;;1.42;;
66946;SDS011;53853;51.982;5.928;2023-07-29T12:44:34;2.85;;;1.52;;
66946;SDS011;53853;51.982;5.928;2023-07-29T12:47:07;2.83;;;1.30;;
66946;SDS011;53853;51.982;5.928;2023-07-29T12:49:37;3.85;;;1.48;;
66946;SDS011;53853;51.982;5.928;2023-07-29T12:52:07;2.97;;;1.27;;
66946;SDS011;53853;51.982;5.928;2023-07-29T12:54:37;2.83;;;1.00;;
66946;SDS011;53853;51.982;5.928;2023-07-29T12:57:10;3.05;;;1.20;;
66946;SDS011;53853;51.982;5.928;2023-07-29T12:59:39;3.92;;;1.30;;
66946;SDS011;53853;51.982;5.928;2023-07-29T13:02:12;3.45;;;1.20;;
66946;SDS011;53853;51.982;5.928;2023-07-29T13:04:42;2.60;;;1.50;;
66946;SDS011;53853;51.982;5.928;2023-07-29T13:07:12;1.80;;;1.13;;
66946;SDS011;53853;51.982;5.928;2023-07-29T13:09:42;2.47;;;1.70;;
66946;SDS011;53853;51.982;5.928;2023-07-29T13:12:11;3.28;;;1.38;;
66946;SDS011;53853;51.982;5.928;2023-07-29T13:14:41;2.45;;;1.17;;
66946;SDS011;53853;51.982;5.928;2023-07-29T13:17:14;2.72;;;1.63;;
66946;SDS011;53853;51.982;5.928;2023-07-29T13:19:44;3.25;;;1.77;;
66946;SDS011;53853;51.982;5.928;2023-07-29T13:22:14;3.80;;;2.20;;
66946;SDS011;53853;51.982;5.928;2023-07-29T13:24:43;2.03;;;1.40;;
66946;SDS011;53853;51.982;5.928;2023-07-29T13:27:13;4.53;;;1.70;;
66946;SDS011;53853;51.982;5.928;2023-07-29T13:29:43;2.40;;;1.50;;
66946;SDS011;53853;51.982;5.928;2023-07-29T13:32:16;3.17;;;2.08;;
66946;SDS011;53853;51.982;5.928;2023-07-29T13:34:45;3.20;;;2.33;;
66946;SDS011;53853;51.982;5.928;2023-07-29T13:37:15;3.05;;;1.92;;
66946;SDS011;53853;51.982;5.928;2023-07-29T13:39:45;2.72;;;1.70;;
66946;SDS011;53853;51.982;5.928;2023-07-29T13:42:15;3.70;;;2.17;;
66946;SDS011;53853;51.982;5.928;2023-07-29T13:44:45;4.45;;;2.47;;
66946;SDS011;53853;51.982;5.928;2023-07-29T13:47:17;5.97;;;2.05;;
66946;SDS011;53853;51.982;5.928;2023-07-29T13:49:47;3.35;;;2.05;;
66946;SDS011;53853;51.982;5.928;2023-07-29T13:52:17;3.60;;;2.05;;
66946;SDS011;53853;51.982;5.928;2023-07-29T13:54:47;3.60;;;2.00;;
66946;SDS011;53853;51.982;5.928;2023-07-29T13:57:17;2.80;;;2.00;;
66946;SDS011;53853;51.982;5.928;2023-07-29T13:59:47;2.35;;;1.60;;
66946;SDS011;53853;51.982;5.928;2023-07-29T14:02:19;2.30;;;1.50;;
66946;SDS011;53853;51.982;5.928;2023-07-29T14:04:49;3.78;;;1.40;;
66946;SDS011;53853;51.982;5.928;2023-07-29T14:07:19;2.60;;;1.73;;
66946;SDS011;53853;51.982;5.928;2023-07-29T14:09:49;2.22;;;1.50;;
66946;SDS011;53853;51.982;5.928;2023-07-29T14:12:19;2.58;;;1.38;;
66946;SDS011;53853;51.982;5.928;2023-07-29T14:14:49;2.15;;;1.40;;
66946;SDS011;53853;51.982;5.928;2023-07-29T14:17:21;2.97;;;1.80;;
66946;SDS011;53853;51.982;5.928;2023-07-29T14:19:51;3.05;;;1.60;;
66946;SDS011;53853;51.982;5.928;2023-07-29T14:22:21;3.25;;;1.85;;
66946;SDS011;53853;51.982;5.928;2023-07-29T14:24:51;2.30;;;1.50;;
66946;SDS011;53853;51.982;5.928;2023-07-29T14:27:21;2.80;;;1.63;;
66946;SDS011;53853;51.982;5.928;2023-07-29T14:29:51;3.92;;;1.75;;
66946;SDS011;53853;51.982;5.928;2023-07-29T14:32:23;4.18;;;1.83;;
66946;SDS011;53853;51.982;5.928;2023-07-29T14:34:54;4.20;;;1.95;;
66946;SDS011;53853;51.982;5.928;2023-07-29T14:37:24;4.75;;;1.85;;
66946;SDS011;53853;51.982;5.928;2023-07-29T14:39:53;2.53;;;1.38;;
66946;SDS011;53853;51.982;5.928;2023-07-29T14:42:23;2.83;;;1.85;;
66946;SDS011;53853;51.982;5.928;2023-07-29T14:44:53;3.30;;;1.88;;
66946;SDS011;53853;51.982;5.928;2023-07-29T14:47:26;3.15;;;1.55;;
66946;SDS011;53853;51.982;5.928;2023-07-29T14:50:00;2.80;;;1.30;;
66946;SDS011;53853;51.982;5.928;2023-07-29T14:52:30;2.25;;;1.40;;
66946;SDS011;53853;51.982;5.928;2023-07-29T14:55:00;2.75;;;1.35;;
66946;SDS011;53853;51.982;5.928;2023-07-29T14:57:30;2.80;;;1.80;;
66946;SDS011;53853;51.982;5.928;2023-07-29T15:00:00;2.92;;;1.48;;
66946;SDS011;53853;51.982;5.928;2023-07-29T15:02:32;2.03;;;1.20;;
66946;SDS011;53853;51.982;5.928;2023-07-29T15:05:02;2.10;;;1.42;;
66946;SDS011;53853;51.982;5.928;2023-07-29T15:07:33;2.72;;;1.60;;
66946;SDS011;53853;51.982;5.928;2023-07-29T15:10:03;2.47;;;1.40;;
66946;SDS011;53853;51.982;5.928;2023-07-29T15:12:33;2.80;;;1.65;;
66946;SDS011;53853;51.982;5.928;2023-07-29T15:15:04;2.78;;;1.88;;
66946;SDS011;53853;51.982;5.928;2023-07-29T15:17:37;3.33;;;2.30;;
66946;SDS011;53853;51.982;5.928;2023-07-29T15:20:08;2.33;;;1.58;;
66946;SDS011;53853;51.982;5.928;2023-07-29T15:22:39;3.97;;;1.83;;